sensor_id;sensor_type;location;lat;lon;timestamp;P1;P2;P0
56688;PMS5003;42565;53.342;-1.534;2023-04-24T00:00:52;6;6;
56688;PMS5003;42565;53.342;-1.534;2023-04-24T00:03:24;5;5;
56688;PMS5003;42565;53.342;-1.534;2023-04-24T00:05:51;4;4;
56688;PMS5003;42565;53.342;-1.534;2023-04-24T00:08:19;4;3;
56688;PMS5003;42565;53.342;-1.534;2023-04-24T00:10:46;5;4;
56688;PMS5003;42565;53.342;-1.534;2023-04-24T00:13:13;5;5;
56688;PMS5003;42565;53.342;-1.534;2023-04-24T00:15:40;3;3;
56688;PMS5003;42565;53.342;-1.534;2023-04-24T00:18:06;2;2;
56688;PMS5003;42565;53.342;-1.534;2023-04-24T00:20:33;5;4;
56688;PMS5003;42565;53.342;-1.534;2023-04-24T00:23:01;4;4;
56688;PMS5003;42565;53.342;-1.534;2023-04-24T00:25:28;2;2;
56688;PMS5003;42565;53.342;-1.534;2023-04-24T00:27:54;3;3;
56688;PMS5003;42565;53.342;-1.534;2023-04-24T00:30:21;4;4;
56688;PMS5003;42565;53.342;-1.534;2023-04-24T00:32:49;4;3;
56688;PMS5003;42565;53.342;-1.534;2023-04-24T00:35:16;4;4;
56688;PMS5003;42565;53.342;-1.534;2023-04-24T00:37:44;2;2;
56688;PMS5003;42565;53.342;-1.534;2023-04-24T00:40:11;3;3;
56688;PMS5003;42565;53.342;-1.534;2023-04-24T00:42:38;3;3;
56688;PMS5003;42565;53.342;-1.534;2023-04-24T00:45:06;3;3;
56688;PMS5003;42565;53.342;-1.534;2023-04-24T00:47:34;3;3;
56688;PMS5003;42565;53.342;-1.534;2023-04-24T00:50:04;3;3;
56688;PMS5003;42565;53.342;-1.534;2023-04-24T00:52:32;3;3;
56688;PMS5003;42565;53.342;-1.534;2023-04-24T00:54:59;3;3;
56688;PMS5003;42565;53.342;-1.534;2023-04-24T00:57:25;4;4;
56688;PMS5003;42565;53.342;-1.534;2023-04-24T00:59:53;2;2;
56688;PMS5003;42565;53.342;-1.534;2023-04-24T01:02:21;3;3;
56688;PMS5003;42565;53.342;-1.534;2023-04-24T01:04:49;3;3;
56688;PMS5003;42565;53.342;-1.534;2023-04-24T01:07:18;2;1;
56688;PMS5003;42565;53.342;-1.534;2023-04-24T01:09:47;4;4;
56688;PMS5003;42565;53.342;-1.534;2023-04-24T01:12:15;3;2;
56688;PMS5003;42565;53.342;-1.534;2023-04-24T01:14:42;2;2;
56688;PMS5003;42565;53.342;-1.534;2023-04-24T01:17:09;3;2;
56688;PMS5003;42565;53.342;-1.534;2023-04-24T01:19:36;2;2;
56688;PMS5003;42565;53.342;-1.534;2023-04-24T01:22:08;3;3;
56688;PMS5003;42565;53.342;-1.534;2023-04-24T01:24:36;1;1;
56688;PMS5003;42565;53.342;-1.534;2023-04-24T01:27:04;3;3;
56688;PMS5003;42565;53.342;-1.534;2023-04-24T01:29:32;2;1;
56688;PMS5003;42565;53.342;-1.534;2023-04-24T01:31:59;3;3;
56688;PMS5003;42565;53.342;-1.534;2023-04-24T01:34:27;1;1;
56688;PMS5003;42565;53.342;-1.534;2023-04-24T01:36:54;4;3;
56688;PMS5003;42565;53.342;-1.534;2023-04-24T01:39:22;3;3;
56688;PMS5003;42565;53.342;-1.534;2023-04-24T01:41:49;2;2;
56688;PMS5003;42565;53.342;-1.534;2023-04-24T01:44:16;2;2;
56688;PMS5003;42565;53.342;-1.534;2023-04-24T01:46:44;2;2;
56688;PMS5003;42565;53.342;-1.534;2023-04-24T01:49:12;2;2;
56688;PMS5003;42565;53.342;-1.534;2023-04-24T01:51:39;3;1;
56688;PMS5003;42565;53.342;-1.534;2023-04-24T01:54:06;3;3;
56688;PMS5003;42565;53.342;-1.534;2023-04-24T01:56:33;1;1;
56688;PMS5003;42565;53.342;-1.534;2023-04-24T01:59:01;2;2;
56688;PMS5003;42565;53.342;-1.534;2023-04-24T02:01:32;2;2;
56688;PMS5003;42565;53.342;-1.534;2023-04-24T02:04:01;2;1;
56688;PMS5003;42565;53.342;-1.534;2023-04-24T02:06:28;2;2;
56688;PMS5003;42565;53.342;-1.534;2023-04-24T02:08:55;3;3;
56688;PMS5003;42565;53.342;-1.534;2023-04-24T02:11:22;3;3;
56688;PMS5003;42565;53.342;-1.534;2023-04-24T02:13:48;1;1;
56688;PMS5003;42565;53.342;-1.534;2023-04-24T02:16:16;3;2;
56688;PMS5003;42565;53.342;-1.534;2023-04-24T02:18:44;2;1;
56688;PMS5003;42565;53.342;-1.534;2023-04-24T02:21:11;3;2;
56688;PMS5003;42565;53.342;-1.534;2023-04-24T02:23:38;4;3;
56688;PMS5003;42565;53.342;-1.534;2023-04-24T02:26:05;2;2;
56688;PMS5003;42565;53.342;-1.534;2023-04-24T02:28:32;1;0;
56688;PMS5003;42565;53.342;-1.534;2023-04-24T02:30:59;2;2;
56688;PMS5003;42565;53.342;-1.534;2023-04-24T02:33:26;2;0;
56688;PMS5003;42565;53.342;-1.534;2023-04-24T02:35:53;3;3;
56688;PMS5003;42565;53.342;-1.534;2023-04-24T02:38:20;2;1;
56688;PMS5003;42565;53.342;-1.534;2023-04-24T02:40:47;2;2;
56688;PMS5003;42565;53.342;-1.534;2023-04-24T02:43:14;1;1;
56688;PMS5003;42565;53.342;-1.534;2023-04-24T02:45:40;3;2;
56688;PMS5003;42565;53.342;-1.534;2023-04-24T02:48:07;2;2;
56688;PMS5003;42565;53.342;-1.534;2023-04-24T02:50:34;1;1;
56688;PMS5003;42565;53.342;-1.534;2023-04-24T02:53:00;3;2;
56688;PMS5003;42565;53.342;-1.534;2023-04-24T02:55:27;2;1;
56688;PMS5003;42565;53.342;-1.534;2023-04-24T02:57:54;2;2;
56688;PMS5003;42565;53.342;-1.534;2023-04-24T03:00:21;3;2;
56688;PMS5003;42565;53.342;-1.534;2023-04-24T03:02:47;2;2;
56688;PMS5003;42565;53.342;-1.534;2023-04-24T03:05:14;2;1;
56688;PMS5003;42565;53.342;-1.534;2023-04-24T03:07:42;2;2;
56688;PMS5003;42565;53.342;-1.534;2023-04-24T03:10:09;2;2;
56688;PMS5003;42565;53.342;-1.534;2023-04-24T03:12:36;1;1;
56688;PMS5003;42565;53.342;-1.534;2023-04-24T03:15:03;2;2;
56688;PMS5003;42565;53.342;-1.534;2023-04-24T03:17:30;3;2;
56688;PMS5003;42565;53.342;-1.534;2023-04-24T03:19:57;2;1;
56688;PMS5003;42565;53.342;-1.534;2023-04-24T03:22:24;3;2;
56688;PMS5003;42565;53.342;-1.534;2023-04-24T03:24:51;3;2;
56688;PMS5003;42565;53.342;-1.534;2023-04-24T03:27:18;1;1;
56688;PMS5003;42565;53.342;-1.534;2023-04-24T03:29:45;4;3;
56688;PMS5003;42565;53.342;-1.534;2023-04-24T03:32:12;1;1;
56688;PMS5003;42565;53.342;-1.534;2023-04-24T03:34:39;3;3;
56688;PMS5003;42565;53.342;-1.534;2023-04-24T03:37:06;1;1;
56688;PMS5003;42565;53.342;-1.534;2023-04-24T03:39:33;2;2;
56688;PMS5003;42565;53.342;-1.534;2023-04-24T03:42:00;3;3;
56688;PMS5003;42565;53.342;-1.534;2023-04-24T03:44:26;2;2;
56688;PMS5003;42565;53.342;-1.534;2023-04-24T03:46:53;2;2;
56688;PMS5003;42565;53.342;-1.534;2023-04-24T03:49:20;2;2;
56688;PMS5003;42565;53.342;-1.534;2023-04-24T03:51:47;4;3;
56688;PMS5003;42565;53.342;-1.534;2023-04-24T03:54:13;3;3;
56688;PMS5003;42565;53.342;-1.534;2023-04-24T03:56:40;3;3;
56688;PMS5003;42565;53.342;-1.534;2023-04-24T03:59:07;2;2;
56688;PMS5003;42565;53.342;-1.534;2023-04-24T04:01:33;2;2;
56688;PMS5003;42565;53.342;-1.534;2023-04-24T04:04:00;2;2;
56688;PMS5003;42565;53.342;-1.534;2023-04-24T04:06:27;1;1;
56688;PMS5003;42565;53.342;-1.534;2023-04-24T04:08:54;2;2;
56688;PMS5003;42565;53.342;-1.534;2023-04-24T04:11:20;2;2;
56688;PMS5003;42565;53.342;-1.534;2023-04-24T04:13:47;2;2;
56688;PMS5003;42565;53.342;-1.534;2023-04-24T04:16:14;2;1;
56688;PMS5003;42565;53.342;-1.534;2023-04-24T04:18:41;2;2;
56688;PMS5003;42565;53.342;-1.534;2023-04-24T04:21:07;2;1;
56688;PMS5003;42565;53.342;-1.534;2023-04-24T04:23:34;3;2;
56688;PMS5003;42565;53.342;-1.534;2023-04-24T04:26:01;3;2;
56688;PMS5003;42565;53.342;-1.534;2023-04-24T04:28:28;2;1;
56688;PMS5003;42565;53.342;-1.534;2023-04-24T04:30:56;3;3;
56688;PMS5003;42565;53.342;-1.534;2023-04-24T04:33:23;2;1;
56688;PMS5003;42565;53.342;-1.534;2023-04-24T04:35:51;3;3;
56688;PMS5003;42565;53.342;-1.534;2023-04-24T04:38:19;2;2;
56688;PMS5003;42565;53.342;-1.534;2023-04-24T04:40:46;8;6;
56688;PMS5003;42565;53.342;-1.534;2023-04-24T04:43:13;1;1;
56688;PMS5003;42565;53.342;-1.534;2023-04-24T04:45:41;2;2;
56688;PMS5003;42565;53.342;-1.534;2023-04-24T04:48:08;3;2;
56688;PMS5003;42565;53.342;-1.534;2023-04-24T04:50:36;3;2;
56688;PMS5003;42565;53.342;-1.534;2023-04-24T04:53:02;3;3;
56688;PMS5003;42565;53.342;-1.534;2023-04-24T04:55:30;1;1;
56688;PMS5003;42565;53.342;-1.534;2023-04-24T04:57:57;3;2;
56688;PMS5003;42565;53.342;-1.534;2023-04-24T05:00:24;1;1;
56688;PMS5003;42565;53.342;-1.534;2023-04-24T05:02:51;3;2;
56688;PMS5003;42565;53.342;-1.534;2023-04-24T05:05:19;4;2;
56688;PMS5003;42565;53.342;-1.534;2023-04-24T05:07:45;2;2;
56688;PMS5003;42565;53.342;-1.534;2023-04-24T05:10:12;2;1;
56688;PMS5003;42565;53.342;-1.534;2023-04-24T05:12:39;3;2;
56688;PMS5003;42565;53.342;-1.534;2023-04-24T05:15:06;3;2;
56688;PMS5003;42565;53.342;-1.534;2023-04-24T05:17:33;4;3;
56688;PMS5003;42565;53.342;-1.534;2023-04-24T05:20:00;4;2;
56688;PMS5003;42565;53.342;-1.534;2023-04-24T05:22:28;2;2;
56688;PMS5003;42565;53.342;-1.534;2023-04-24T05:24:54;1;1;
56688;PMS5003;42565;53.342;-1.534;2023-04-24T05:27:21;2;2;
56688;PMS5003;42565;53.342;-1.534;2023-04-24T05:29:48;4;2;
56688;PMS5003;42565;53.342;-1.534;2023-04-24T05:32:15;5;4;
56688;PMS5003;42565;53.342;-1.534;2023-04-24T05:34:41;2;2;
56688;PMS5003;42565;53.342;-1.534;2023-04-24T05:37:08;2;2;
56688;PMS5003;42565;53.342;-1.534;2023-04-24T05:39:36;4;4;
56688;PMS5003;42565;53.342;-1.534;2023-04-24T05:42:04;2;2;
56688;PMS5003;42565;53.342;-1.534;2023-04-24T05:44:31;3;3;
56688;PMS5003;42565;53.342;-1.534;2023-04-24T05:46:58;2;2;
56688;PMS5003;42565;53.342;-1.534;2023-04-24T05:49:24;3;3;
56688;PMS5003;42565;53.342;-1.534;2023-04-24T05:51:51;4;4;
56688;PMS5003;42565;53.342;-1.534;2023-04-24T05:54:18;3;2;
56688;PMS5003;42565;53.342;-1.534;2023-04-24T05:56:46;4;3;
56688;PMS5003;42565;53.342;-1.534;2023-04-24T05:59:12;1;1;
56688;PMS5003;42565;53.342;-1.534;2023-04-24T06:01:39;4;3;
56688;PMS5003;42565;53.342;-1.534;2023-04-24T06:04:06;3;2;
56688;PMS5003;42565;53.342;-1.534;2023-04-24T06:06:33;3;3;
56688;PMS5003;42565;53.342;-1.534;2023-04-24T06:09:00;2;2;
56688;PMS5003;42565;53.342;-1.534;2023-04-24T06:11:27;4;3;
56688;PMS5003;42565;53.342;-1.534;2023-04-24T06:13:54;6;4;
56688;PMS5003;42565;53.342;-1.534;2023-04-24T06:16:20;4;3;
56688;PMS5003;42565;53.342;-1.534;2023-04-24T06:18:47;4;4;
56688;PMS5003;42565;53.342;-1.534;2023-04-24T06:21:15;3;3;
56688;PMS5003;42565;53.342;-1.534;2023-04-24T06:23:42;4;4;
56688;PMS5003;42565;53.342;-1.534;2023-04-24T06:26:09;3;2;
56688;PMS5003;42565;53.342;-1.534;2023-04-24T06:28:36;6;3;
56688;PMS5003;42565;53.342;-1.534;2023-04-24T06:31:03;4;3;
56688;PMS5003;42565;53.342;-1.534;2023-04-24T06:33:30;5;3;
56688;PMS5003;42565;53.342;-1.534;2023-04-24T06:35:57;4;4;
56688;PMS5003;42565;53.342;-1.534;2023-04-24T06:38:24;4;4;
56688;PMS5003;42565;53.342;-1.534;2023-04-24T06:40:51;6;5;
56688;PMS5003;42565;53.342;-1.534;2023-04-24T06:43:19;4;4;
56688;PMS5003;42565;53.342;-1.534;2023-04-24T06:45:46;9;8;
56688;PMS5003;42565;53.342;-1.534;2023-04-24T06:48:12;10;10;
56688;PMS5003;42565;53.342;-1.534;2023-04-24T06:50:39;17;17;
56688;PMS5003;42565;53.342;-1.534;2023-04-24T06:53:06;6;5;
56688;PMS5003;42565;53.342;-1.534;2023-04-24T06:55:33;5;4;
56688;PMS5003;42565;53.342;-1.534;2023-04-24T06:57:59;5;4;
56688;PMS5003;42565;53.342;-1.534;2023-04-24T07:00:27;4;3;
56688;PMS5003;42565;53.342;-1.534;2023-04-24T07:02:54;5;3;
56688;PMS5003;42565;53.342;-1.534;2023-04-24T07:05:21;4;4;
56688;PMS5003;42565;53.342;-1.534;2023-04-24T07:07:48;7;5;
56688;PMS5003;42565;53.342;-1.534;2023-04-24T07:10:15;10;7;
56688;PMS5003;42565;53.342;-1.534;2023-04-24T07:12:42;5;4;
56688;PMS5003;42565;53.342;-1.534;2023-04-24T07:15:09;6;5;
56688;PMS5003;42565;53.342;-1.534;2023-04-24T07:17:37;4;3;
56688;PMS5003;42565;53.342;-1.534;2023-04-24T07:20:04;8;7;
56688;PMS5003;42565;53.342;-1.534;2023-04-24T07:22:32;8;7;
56688;PMS5003;42565;53.342;-1.534;2023-04-24T07:24:59;6;5;
56688;PMS5003;42565;53.342;-1.534;2023-04-24T07:27:25;4;3;
56688;PMS5003;42565;53.342;-1.534;2023-04-24T07:29:52;6;5;
56688;PMS5003;42565;53.342;-1.534;2023-04-24T07:32:20;5;4;
56688;PMS5003;42565;53.342;-1.534;2023-04-24T07:34:47;6;4;
56688;PMS5003;42565;53.342;-1.534;2023-04-24T07:37:14;5;5;
56688;PMS5003;42565;53.342;-1.534;2023-04-24T07:39:41;8;5;
56688;PMS5003;42565;53.342;-1.534;2023-04-24T07:42:08;6;5;
56688;PMS5003;42565;53.342;-1.534;2023-04-24T07:44:35;5;5;
56688;PMS5003;42565;53.342;-1.534;2023-04-24T07:47:02;5;5;
56688;PMS5003;42565;53.342;-1.534;2023-04-24T07:49:28;4;4;
56688;PMS5003;42565;53.342;-1.534;2023-04-24T07:51:55;8;6;
56688;PMS5003;42565;53.342;-1.534;2023-04-24T07:54:23;7;5;
56688;PMS5003;42565;53.342;-1.534;2023-04-24T07:56:50;6;5;
56688;PMS5003;42565;53.342;-1.534;2023-04-24T07:59:17;5;5;
56688;PMS5003;42565;53.342;-1.534;2023-04-24T08:01:44;6;5;
56688;PMS5003;42565;53.342;-1.534;2023-04-24T08:04:11;6;6;
56688;PMS5003;42565;53.342;-1.534;2023-04-24T08:06:38;8;6;
56688;PMS5003;42565;53.342;-1.534;2023-04-24T08:09:06;5;4;
56688;PMS5003;42565;53.342;-1.534;2023-04-24T08:11:33;6;4;
56688;PMS5003;42565;53.342;-1.534;2023-04-24T08:14:01;6;6;
56688;PMS5003;42565;53.342;-1.534;2023-04-24T08:16:27;6;5;
56688;PMS5003;42565;53.342;-1.534;2023-04-24T08:18:55;8;7;
56688;PMS5003;42565;53.342;-1.534;2023-04-24T08:21:22;6;5;
56688;PMS5003;42565;53.342;-1.534;2023-04-24T08:23:48;6;4;
56688;PMS5003;42565;53.342;-1.534;2023-04-24T08:26:16;5;4;
56688;PMS5003;42565;53.342;-1.534;2023-04-24T08:28:43;5;5;
56688;PMS5003;42565;53.342;-1.534;2023-04-24T08:31:09;5;4;
56688;PMS5003;42565;53.342;-1.534;2023-04-24T08:33:36;5;4;
56688;PMS5003;42565;53.342;-1.534;2023-04-24T08:36:03;6;6;
56688;PMS5003;42565;53.342;-1.534;2023-04-24T08:38:31;4;4;
56688;PMS5003;42565;53.342;-1.534;2023-04-24T08:40:59;5;4;
56688;PMS5003;42565;53.342;-1.534;2023-04-24T08:43:27;4;4;
56688;PMS5003;42565;53.342;-1.534;2023-04-24T08:45:55;5;5;
56688;PMS5003;42565;53.342;-1.534;2023-04-24T08:48:23;7;6;
56688;PMS5003;42565;53.342;-1.534;2023-04-24T08:50:51;5;4;
56688;PMS5003;42565;53.342;-1.534;2023-04-24T08:53:19;7;6;
56688;PMS5003;42565;53.342;-1.534;2023-04-24T08:55:47;4;4;
56688;PMS5003;42565;53.342;-1.534;2023-04-24T08:58:16;6;5;
56688;PMS5003;42565;53.342;-1.534;2023-04-24T09:00:43;6;4;
56688;PMS5003;42565;53.342;-1.534;2023-04-24T09:03:10;6;5;
56688;PMS5003;42565;53.342;-1.534;2023-04-24T09:05:38;6;6;
56688;PMS5003;42565;53.342;-1.534;2023-04-24T09:08:06;5;4;
56688;PMS5003;42565;53.342;-1.534;2023-04-24T09:10:34;7;6;
56688;PMS5003;42565;53.342;-1.534;2023-04-24T09:13:02;7;6;
56688;PMS5003;42565;53.342;-1.534;2023-04-24T09:15:28;6;6;
56688;PMS5003;42565;53.342;-1.534;2023-04-24T09:17:55;5;4;
56688;PMS5003;42565;53.342;-1.534;2023-04-24T09:20:23;7;7;
56688;PMS5003;42565;53.342;-1.534;2023-04-24T09:22:53;6;6;
56688;PMS5003;42565;53.342;-1.534;2023-04-24T09:25:20;5;5;
56688;PMS5003;42565;53.342;-1.534;2023-04-24T09:27:48;5;5;
56688;PMS5003;42565;53.342;-1.534;2023-04-24T09:30:15;5;5;
56688;PMS5003;42565;53.342;-1.534;2023-04-24T09:32:47;5;5;
56688;PMS5003;42565;53.342;-1.534;2023-04-24T09:35:14;6;6;
56688;PMS5003;42565;53.342;-1.534;2023-04-24T09:37:43;9;7;
56688;PMS5003;42565;53.342;-1.534;2023-04-24T09:40:12;8;6;
56688;PMS5003;42565;53.342;-1.534;2023-04-24T09:42:43;6;5;
56688;PMS5003;42565;53.342;-1.534;2023-04-24T09:45:11;6;5;
56688;PMS5003;42565;53.342;-1.534;2023-04-24T09:47:39;8;7;
56688;PMS5003;42565;53.342;-1.534;2023-04-24T09:50:10;6;6;
56688;PMS5003;42565;53.342;-1.534;2023-04-24T09:52:40;6;5;
56688;PMS5003;42565;53.342;-1.534;2023-04-24T09:55:16;8;7;
56688;PMS5003;42565;53.342;-1.534;2023-04-24T09:57:47;7;6;
56688;PMS5003;42565;53.342;-1.534;2023-04-24T10:00:18;8;7;
56688;PMS5003;42565;53.342;-1.534;2023-04-24T10:02:54;7;6;
56688;PMS5003;42565;53.342;-1.534;2023-04-24T10:05:23;9;8;
56688;PMS5003;42565;53.342;-1.534;2023-04-24T10:07:52;9;6;
56688;PMS5003;42565;53.342;-1.534;2023-04-24T10:10:23;5;5;
56688;PMS5003;42565;53.342;-1.534;2023-04-24T10:12:51;8;7;
56688;PMS5003;42565;53.342;-1.534;2023-04-24T10:15:18;8;6;
56688;PMS5003;42565;53.342;-1.534;2023-04-24T10:17:46;8;6;
56688;PMS5003;42565;53.342;-1.534;2023-04-24T10:20:15;8;6;
56688;PMS5003;42565;53.342;-1.534;2023-04-24T10:22:42;4;4;
56688;PMS5003;42565;53.342;-1.534;2023-04-24T10:25:11;5;5;
56688;PMS5003;42565;53.342;-1.534;2023-04-24T10:27:39;7;6;
56688;PMS5003;42565;53.342;-1.534;2023-04-24T10:30:07;7;6;
56688;PMS5003;42565;53.342;-1.534;2023-04-24T10:32:38;6;5;
56688;PMS5003;42565;53.342;-1.534;2023-04-24T10:35:05;8;7;
56688;PMS5003;42565;53.342;-1.534;2023-04-24T10:37:35;7;7;
56688;PMS5003;42565;53.342;-1.534;2023-04-24T10:40:05;7;6;
56688;PMS5003;42565;53.342;-1.534;2023-04-24T10:42:34;9;8;
56688;PMS5003;42565;53.342;-1.534;2023-04-24T10:45:05;5;4;
56688;PMS5003;42565;53.342;-1.534;2023-04-24T10:47:39;6;5;
56688;PMS5003;42565;53.342;-1.534;2023-04-24T10:50:07;7;6;
56688;PMS5003;42565;53.342;-1.534;2023-04-24T10:52:51;5;5;
56688;PMS5003;42565;53.342;-1.534;2023-04-24T10:55:39;5;5;
56688;PMS5003;42565;53.342;-1.534;2023-04-24T10:58:08;5;4;
56688;PMS5003;42565;53.342;-1.534;2023-04-24T11:00:36;3;3;
56688;PMS5003;42565;53.342;-1.534;2023-04-24T11:03:05;6;5;
56688;PMS5003;42565;53.342;-1.534;2023-04-24T11:06:05;6;6;
56688;PMS5003;42565;53.342;-1.534;2023-04-24T11:08:37;5;5;
56688;PMS5003;42565;53.342;-1.534;2023-04-24T11:11:09;5;5;
56688;PMS5003;42565;53.342;-1.534;2023-04-24T11:14:09;6;6;
56688;PMS5003;42565;53.342;-1.534;2023-04-24T11:16:39;8;5;
56688;PMS5003;42565;53.342;-1.534;2023-04-24T11:19:09;7;5;
56688;PMS5003;42565;53.342;-1.534;2023-04-24T11:21:47;5;5;
56688;PMS5003;42565;53.342;-1.534;2023-04-24T11:24:23;7;5;
56688;PMS5003;42565;53.342;-1.534;2023-04-24T11:26:51;5;5;
56688;PMS5003;42565;53.342;-1.534;2023-04-24T11:29:20;6;5;
56688;PMS5003;42565;53.342;-1.534;2023-04-24T11:31:48;4;4;
56688;PMS5003;42565;53.342;-1.534;2023-04-24T11:34:16;7;5;
56688;PMS5003;42565;53.342;-1.534;2023-04-24T11:36:43;7;6;
56688;PMS5003;42565;53.342;-1.534;2023-04-24T11:39:11;7;6;
56688;PMS5003;42565;53.342;-1.534;2023-04-24T11:41:38;8;5;
56688;PMS5003;42565;53.342;-1.534;2023-04-24T11:44:06;5;5;
56688;PMS5003;42565;53.342;-1.534;2023-04-24T11:46:35;7;6;
56688;PMS5003;42565;53.342;-1.534;2023-04-24T11:49:03;8;6;
56688;PMS5003;42565;53.342;-1.534;2023-04-24T11:51:29;6;6;
56688;PMS5003;42565;53.342;-1.534;2023-04-24T11:53:56;8;7;
56688;PMS5003;42565;53.342;-1.534;2023-04-24T11:56:23;7;6;
56688;PMS5003;42565;53.342;-1.534;2023-04-24T11:58:52;7;6;
56688;PMS5003;42565;53.342;-1.534;2023-04-24T12:01:19;7;6;
56688;PMS5003;42565;53.342;-1.534;2023-04-24T12:03:48;8;7;
56688;PMS5003;42565;53.342;-1.534;2023-04-24T12:06:16;8;6;
56688;PMS5003;42565;53.342;-1.534;2023-04-24T12:08:45;7;5;
56688;PMS5003;42565;53.342;-1.534;2023-04-24T12:11:14;9;6;
56688;PMS5003;42565;53.342;-1.534;2023-04-24T12:13:42;6;5;
56688;PMS5003;42565;53.342;-1.534;2023-04-24T12:16:09;4;4;
56688;PMS5003;42565;53.342;-1.534;2023-04-24T12:18:40;5;4;
56688;PMS5003;42565;53.342;-1.534;2023-04-24T12:21:16;7;5;
56688;PMS5003;42565;53.342;-1.534;2023-04-24T12:23:44;5;4;
56688;PMS5003;42565;53.342;-1.534;2023-04-24T12:26:12;5;4;
56688;PMS5003;42565;53.342;-1.534;2023-04-24T12:28:45;6;6;
56688;PMS5003;42565;53.342;-1.534;2023-04-24T12:31:13;4;4;
56688;PMS5003;42565;53.342;-1.534;2023-04-24T12:33:41;5;5;
56688;PMS5003;42565;53.342;-1.534;2023-04-24T12:36:09;5;5;
56688;PMS5003;42565;53.342;-1.534;2023-04-24T12:38:37;8;5;
56688;PMS5003;42565;53.342;-1.534;2023-04-24T12:41:06;6;5;
56688;PMS5003;42565;53.342;-1.534;2023-04-24T12:43:34;8;6;
56688;PMS5003;42565;53.342;-1.534;2023-04-24T12:46:02;5;4;
56688;PMS5003;42565;53.342;-1.534;2023-04-24T12:48:30;6;5;
56688;PMS5003;42565;53.342;-1.534;2023-04-24T12:50:57;3;3;
56688;PMS5003;42565;53.342;-1.534;2023-04-24T12:53:25;5;4;
56688;PMS5003;42565;53.342;-1.534;2023-04-24T12:56:03;4;4;
56688;PMS5003;42565;53.342;-1.534;2023-04-24T12:58:30;4;3;
56688;PMS5003;42565;53.342;-1.534;2023-04-24T13:00:58;4;4;
56688;PMS5003;42565;53.342;-1.534;2023-04-24T13:03:25;5;4;
56688;PMS5003;42565;53.342;-1.534;2023-04-24T13:05:51;4;4;
56688;PMS5003;42565;53.342;-1.534;2023-04-24T13:08:18;6;5;
56688;PMS5003;42565;53.342;-1.534;2023-04-24T13:10:45;5;5;
56688;PMS5003;42565;53.342;-1.534;2023-04-24T13:13:12;6;5;
56688;PMS5003;42565;53.342;-1.534;2023-04-24T13:15:39;6;4;
56688;PMS5003;42565;53.342;-1.534;2023-04-24T13:18:06;4;4;
56688;PMS5003;42565;53.342;-1.534;2023-04-24T13:20:33;4;3;
56688;PMS5003;42565;53.342;-1.534;2023-04-24T13:22:59;5;4;
56688;PMS5003;42565;53.342;-1.534;2023-04-24T13:25:26;5;4;
56688;PMS5003;42565;53.342;-1.534;2023-04-24T13:27:54;7;4;
56688;PMS5003;42565;53.342;-1.534;2023-04-24T13:30:21;6;6;
56688;PMS5003;42565;53.342;-1.534;2023-04-24T13:32:48;5;4;
56688;PMS5003;42565;53.342;-1.534;2023-04-24T13:35:15;4;4;
56688;PMS5003;42565;53.342;-1.534;2023-04-24T13:37:43;4;4;
56688;PMS5003;42565;53.342;-1.534;2023-04-24T13:40:10;6;5;
56688;PMS5003;42565;53.342;-1.534;2023-04-24T13:42:38;3;3;
56688;PMS5003;42565;53.342;-1.534;2023-04-24T13:45:06;5;5;
56688;PMS5003;42565;53.342;-1.534;2023-04-24T13:47:34;6;5;
56688;PMS5003;42565;53.342;-1.534;2023-04-24T13:50:01;5;5;
56688;PMS5003;42565;53.342;-1.534;2023-04-24T13:52:28;5;5;
56688;PMS5003;42565;53.342;-1.534;2023-04-24T13:54:55;4;4;
56688;PMS5003;42565;53.342;-1.534;2023-04-24T13:57:22;5;5;
56688;PMS5003;42565;53.342;-1.534;2023-04-24T13:59:48;5;4;
56688;PMS5003;42565;53.342;-1.534;2023-04-24T14:02:15;4;4;
56688;PMS5003;42565;53.342;-1.534;2023-04-24T14:04:42;5;5;
56688;PMS5003;42565;53.342;-1.534;2023-04-24T14:07:09;6;5;
56688;PMS5003;42565;53.342;-1.534;2023-04-24T14:09:36;6;5;
56688;PMS5003;42565;53.342;-1.534;2023-04-24T14:12:03;5;3;
56688;PMS5003;42565;53.342;-1.534;2023-04-24T14:14:30;4;4;
56688;PMS5003;42565;53.342;-1.534;2023-04-24T14:16:58;4;3;
56688;PMS5003;42565;53.342;-1.534;2023-04-24T14:19:25;10;8;
56688;PMS5003;42565;53.342;-1.534;2023-04-24T14:21:51;5;4;
56688;PMS5003;42565;53.342;-1.534;2023-04-24T14:24:18;5;5;
56688;PMS5003;42565;53.342;-1.534;2023-04-24T14:26:45;12;11;
56688;PMS5003;42565;53.342;-1.534;2023-04-24T14:29:12;13;10;
56688;PMS5003;42565;53.342;-1.534;2023-04-24T14:31:39;13;9;
56688;PMS5003;42565;53.342;-1.534;2023-04-24T14:34:06;10;8;
56688;PMS5003;42565;53.342;-1.534;2023-04-24T14:36:34;9;8;
56688;PMS5003;42565;53.342;-1.534;2023-04-24T14:39:01;10;9;
56688;PMS5003;42565;53.342;-1.534;2023-04-24T14:41:28;7;7;
56688;PMS5003;42565;53.342;-1.534;2023-04-24T14:43:55;9;8;
56688;PMS5003;42565;53.342;-1.534;2023-04-24T14:46:22;6;6;
56688;PMS5003;42565;53.342;-1.534;2023-04-24T14:48:50;11;8;
56688;PMS5003;42565;53.342;-1.534;2023-04-24T14:51:17;9;8;
56688;PMS5003;42565;53.342;-1.534;2023-04-24T14:53:45;8;8;
56688;PMS5003;42565;53.342;-1.534;2023-04-24T14:56:12;6;5;
56688;PMS5003;42565;53.342;-1.534;2023-04-24T14:58:40;8;7;
56688;PMS5003;42565;53.342;-1.534;2023-04-24T15:01:06;9;8;
56688;PMS5003;42565;53.342;-1.534;2023-04-24T15:03:34;6;6;
56688;PMS5003;42565;53.342;-1.534;2023-04-24T15:06:02;5;4;
56688;PMS5003;42565;53.342;-1.534;2023-04-24T15:08:29;7;5;
56688;PMS5003;42565;53.342;-1.534;2023-04-24T15:10:56;4;4;
56688;PMS5003;42565;53.342;-1.534;2023-04-24T15:13:24;6;5;
56688;PMS5003;42565;53.342;-1.534;2023-04-24T15:15:50;5;5;
56688;PMS5003;42565;53.342;-1.534;2023-04-24T15:18:17;4;3;
56688;PMS5003;42565;53.342;-1.534;2023-04-24T15:20:44;7;5;
56688;PMS5003;42565;53.342;-1.534;2023-04-24T15:23:11;4;4;
56688;PMS5003;42565;53.342;-1.534;2023-04-24T15:25:38;5;5;
56688;PMS5003;42565;53.342;-1.534;2023-04-24T15:28:06;7;7;
56688;PMS5003;42565;53.342;-1.534;2023-04-24T15:30:33;3;3;
56688;PMS5003;42565;53.342;-1.534;2023-04-24T15:33:05;5;5;
56688;PMS5003;42565;53.342;-1.534;2023-04-24T15:35:32;7;6;
56688;PMS5003;42565;53.342;-1.534;2023-04-24T15:38:00;4;4;
56688;PMS5003;42565;53.342;-1.534;2023-04-24T15:40:28;7;7;
56688;PMS5003;42565;53.342;-1.534;2023-04-24T15:42:55;7;6;
56688;PMS5003;42565;53.342;-1.534;2023-04-24T15:45:22;7;6;
56688;PMS5003;42565;53.342;-1.534;2023-04-24T15:47:50;7;6;
56688;PMS5003;42565;53.342;-1.534;2023-04-24T15:50:17;7;7;
56688;PMS5003;42565;53.342;-1.534;2023-04-24T15:52:44;8;8;
56688;PMS5003;42565;53.342;-1.534;2023-04-24T15:55:11;6;5;
56688;PMS5003;42565;53.342;-1.534;2023-04-24T15:57:39;6;5;
56688;PMS5003;42565;53.342;-1.534;2023-04-24T16:00:07;8;5;
56688;PMS5003;42565;53.342;-1.534;2023-04-24T16:02:35;8;6;
56688;PMS5003;42565;53.342;-1.534;2023-04-24T16:05:01;5;5;
56688;PMS5003;42565;53.342;-1.534;2023-04-24T16:07:30;6;6;
56688;PMS5003;42565;53.342;-1.534;2023-04-24T16:09:56;7;7;
56688;PMS5003;42565;53.342;-1.534;2023-04-24T16:12:24;9;7;
56688;PMS5003;42565;53.342;-1.534;2023-04-24T16:14:51;8;6;
56688;PMS5003;42565;53.342;-1.534;2023-04-24T16:17:18;7;6;
56688;PMS5003;42565;53.342;-1.534;2023-04-24T16:19:45;8;7;
56688;PMS5003;42565;53.342;-1.534;2023-04-24T16:22:12;7;6;
56688;PMS5003;42565;53.342;-1.534;2023-04-24T16:24:39;7;7;
56688;PMS5003;42565;53.342;-1.534;2023-04-24T16:27:05;7;7;
56688;PMS5003;42565;53.342;-1.534;2023-04-24T16:29:32;8;6;
56688;PMS5003;42565;53.342;-1.534;2023-04-24T16:31:59;9;8;
56688;PMS5003;42565;53.342;-1.534;2023-04-24T16:34:26;6;6;
56688;PMS5003;42565;53.342;-1.534;2023-04-24T16:36:52;7;7;